createdAt,value
2019-05-30T00:00:12.439Z,52.53
2019-05-30T00:00:59.977Z,51.70
2019-05-30T00:01:58.608Z,52.28
2019-05-30T00:02:58.701Z,51.98
2019-05-30T00:03:58.922Z,52.61
2019-05-30T00:05:00.200Z,52.33
2019-05-30T00:05:58.350Z,53.32
2019-05-30T00:06:58.679Z,53.24
2019-05-30T00:08:00.309Z,53.32
2019-05-30T00:09:00.432Z,53.22
2019-05-30T00:09:58.672Z,53.42
2019-05-30T00:10:58.847Z,53.42
2019-05-30T00:12:00.833Z,53.30
2019-05-30T00:13:00.630Z,53.12
2019-05-30T00:14:00.657Z,53.65
2019-05-30T00:15:00.685Z,54.24
2019-05-30T00:16:00.767Z,53.63
2019-05-30T00:17:00.941Z,54.16
2019-05-30T00:18:00.887Z,54.87
2019-05-30T00:19:00.893Z,54.66
2019-05-30T00:20:01.016Z,54.59
2019-05-30T00:21:00.873Z,54.97
2019-05-30T00:22:00.866Z,54.36
2019-05-30T00:23:01.065Z,54.57
2019-05-30T00:24:02.204Z,54.87
2019-05-30T00:25:02.455Z,55.71
2019-05-30T00:26:01.520Z,55.51
2019-05-30T00:27:02.460Z,55.51
2019-05-30T00:28:05.157Z,55.27
2019-05-30T00:29:02.586Z,56.01
2019-05-30T00:30:03.588Z,55.91
2019-05-30T00:31:04.685Z,56.32
2019-05-30T00:32:03.980Z,56.52
2019-05-30T00:33:03.521Z,56.55
2019-05-30T00:34:04.252Z,56.62
2019-05-30T00:35:03.831Z,57.16
2019-05-30T00:36:03.927Z,57.06
2019-05-30T00:37:04.111Z,57.03
2019-05-30T00:38:05.989Z,57.23
2019-05-30T00:39:06.432Z,57.13
2019-05-30T00:40:04.231Z,56.82
2019-05-30T00:41:06.188Z,56.52
2019-05-30T00:42:04.641Z,56.73
2019-05-30T00:43:04.843Z,56.62
2019-05-30T00:44:06.178Z,56.52
2019-05-30T00:45:17.962Z,57.23
2019-05-30T00:46:07.438Z,57.13
2019-05-30T00:47:06.444Z,57.13
2019-05-30T00:48:06.495Z,57.06
2019-05-30T00:49:06.645Z,57.54
2019-05-30T00:50:06.689Z,58.04
2019-05-30T00:51:06.731Z,57.03
2019-05-30T00:52:06.869Z,57.13
2019-05-30T00:53:08.411Z,57.54
2019-05-30T00:54:07.129Z,58.04
2019-05-30T00:55:07.228Z,57.31
2019-05-30T00:56:07.911Z,57.43
2019-05-30T00:57:07.564Z,57.41
2019-05-30T00:58:07.742Z,56.90
2019-05-30T00:59:07.952Z,57.31
2019-05-30T01:00:08.920Z,57.10
2019-05-30T01:01:08.314Z,57.74
2019-05-30T01:02:08.550Z,57.74
2019-05-30T01:03:09.193Z,57.95
2019-05-30T01:04:09.913Z,58.25
2019-05-30T01:05:09.069Z,58.56
2019-05-30T01:06:09.258Z,57.64
2019-05-30T01:07:09.923Z,58.04
2019-05-30T01:08:09.598Z,58.04
2019-05-30T01:09:09.813Z,58.15
2019-05-30T01:10:10.018Z,58.25
2019-05-30T01:11:10.214Z,58.76
2019-05-30T01:12:10.414Z,57.74
2019-05-30T01:13:10.617Z,58.63
2019-05-30T01:14:10.788Z,58.25
2019-05-30T01:15:10.978Z,58.02
2019-05-30T01:16:11.150Z,58.56
2019-05-30T01:17:11.319Z,58.33
2019-05-30T01:18:11.558Z,58.96
2019-05-30T01:19:11.739Z,58.04
2019-05-30T01:20:11.924Z,58.15
2019-05-30T01:21:12.110Z,58.86
2019-05-30T01:22:12.267Z,58.22
2019-05-30T01:23:12.922Z,58.33
2019-05-30T01:24:12.578Z,57.81
2019-05-30T01:25:12.745Z,57.59
2019-05-30T01:26:13.425Z,57.15
2019-05-30T01:27:13.066Z,57.08
2019-05-30T01:28:13.256Z,57.48
2019-05-30T01:29:13.430Z,58.12
2019-05-30T01:30:13.606Z,57.79
2019-05-30T01:31:13.745Z,57.59
2019-05-30T01:32:13.996Z,57.35
2019-05-30T01:33:14.172Z,57.56
2019-05-30T01:34:14.313Z,58.20
2019-05-30T01:35:14.500Z,57.92
2019-05-30T01:36:14.657Z,59.16
2019-05-30T01:37:14.807Z,59.16
2019-05-30T01:38:14.944Z,59.03
2019-05-30T01:39:15.106Z,58.33
2019-05-30T01:40:15.280Z,59.03
2019-05-30T01:41:17.564Z,57.81
2019-05-30T01:42:16.584Z,58.73
2019-05-30T01:43:15.728Z,58.09
2019-05-30T01:44:15.881Z,57.59
2019-05-30T01:45:16.023Z,57.35
2019-05-30T01:46:17.171Z,57.35
2019-05-30T01:47:16.295Z,57.25
2019-05-30T01:48:16.448Z,57.68
2019-05-30T01:49:16.578Z,58.33
2019-05-30T01:50:16.724Z,57.84
2019-05-30T01:51:16.894Z,57.23
2019-05-30T01:52:17.066Z,56.62
2019-05-30T01:53:17.236Z,57.03
2019-05-30T01:54:17.434Z,56.39
2019-05-30T01:55:17.602Z,56.21
2019-05-30T01:56:17.761Z,56.82
2019-05-30T01:57:17.968Z,56.92
2019-05-30T01:58:18.132Z,56.59
2019-05-30T01:59:18.281Z,56.18
2019-05-30T02:00:21.265Z,56.21
2019-05-30T02:01:24.992Z,57.23
2019-05-30T02:02:20.832Z,56.82
2019-05-30T02:03:19.450Z,56.49
2019-05-30T02:04:19.129Z,57.03
2019-05-30T02:05:19.296Z,57.86
2019-05-30T02:06:20.428Z,57.97
2019-05-30T02:07:19.670Z,58.58
2019-05-30T02:08:19.869Z,57.66
2019-05-30T02:09:20.926Z,57.86
2019-05-30T02:10:20.435Z,57.99
2019-05-30T02:11:20.345Z,57.76
2019-05-30T02:12:20.535Z,57.56
2019-05-30T02:13:20.686Z,58.47
2019-05-30T02:14:20.870Z,58.60
2019-05-30T02:15:21.933Z,59.14
2019-05-30T02:16:21.190Z,59.31
2019-05-30T02:17:21.333Z,59.72
2019-05-30T02:18:21.519Z,58.60
2019-05-30T02:19:21.693Z,59.31
2019-05-30T02:20:21.852Z,59.11
2019-05-30T02:21:22.030Z,58.29
2019-05-30T02:22:22.155Z,57.89
2019-05-30T02:23:22.926Z,58.50
2019-05-30T02:24:22.429Z,59.21
2019-05-30T02:25:22.569Z,59.75
2019-05-30T02:26:22.723Z,59.11
2019-05-30T02:27:22.907Z,59.44
2019-05-30T02:28:23.057Z,59.14
2019-05-30T02:29:23.228Z,59.54
2019-05-30T02:30:23.922Z,59.64
2019-05-30T02:31:38.298Z,59.44
2019-05-30T02:32:25.781Z,59.03
2019-05-30T02:33:24.918Z,59.41
2019-05-30T02:34:24.942Z,59.01
2019-05-30T02:35:24.976Z,59.64
2019-05-30T02:36:24.410Z,59.64
2019-05-30T02:37:25.422Z,59.75
2019-05-30T02:38:24.791Z,60.15
2019-05-30T02:39:24.968Z,60.53
2019-05-30T02:40:25.136Z,59.75
2019-05-30T02:41:25.351Z,59.75
2019-05-30T02:42:25.520Z,59.64
2019-05-30T02:43:26.423Z,60.15
2019-05-30T02:44:25.922Z,60.28
2019-05-30T02:45:26.081Z,59.95
2019-05-30T02:46:26.218Z,60.56
2019-05-30T02:47:26.340Z,60.18
2019-05-30T02:48:26.458Z,61.33
2019-05-30T02:49:27.580Z,61.94
2019-05-30T02:50:26.835Z,61.60
2019-05-30T02:51:26.954Z,61.71
2019-05-30T02:52:27.930Z,61.22
2019-05-30T02:53:27.413Z,61.57
2019-05-30T02:54:27.576Z,61.40
2019-05-30T02:55:27.744Z,60.13
2019-05-30T02:56:27.864Z,59.84
2019-05-30T02:57:28.023Z,58.98
2019-05-30T02:58:28.153Z,59.21
2019-05-30T02:59:28.333Z,60.33
2019-05-30T03:00:28.498Z,59.31
2019-05-30T03:01:29.432Z,60.63
2019-05-30T03:02:28.822Z,59.82
2019-05-30T03:03:28.972Z,60.53
2019-05-30T03:04:29.137Z,60.56
2019-05-30T03:05:29.280Z,60.46
2019-05-30T03:06:29.437Z,60.56
2019-05-30T03:07:29.569Z,60.25
2019-05-30T03:08:30.696Z,61.10
2019-05-30T03:09:29.933Z,61.60
2019-05-30T03:10:30.080Z,61.33
2019-05-30T03:11:30.249Z,62.01
2019-05-30T03:12:30.382Z,61.60
2019-05-30T03:13:30.550Z,61.40
2019-05-30T03:14:31.659Z,62.01
2019-05-30T03:15:30.868Z,62.35
2019-05-30T03:16:31.128Z,63.16
2019-05-30T03:17:31.243Z,63.49
2019-05-30T03:18:31.466Z,63.16
2019-05-30T03:19:31.700Z,62.55
2019-05-30T03:20:31.932Z,62.32
2019-05-30T03:21:32.195Z,61.83
2019-05-30T03:22:32.335Z,62.85
2019-05-30T03:23:32.443Z,62.85
2019-05-30T03:24:33.559Z,63.19
2019-05-30T03:25:32.771Z,63.29
2019-05-30T03:26:34.018Z,62.82
2019-05-30T03:27:33.149Z,62.35
2019-05-30T03:28:33.303Z,62.75
2019-05-30T03:29:33.461Z,63.46
2019-05-30T03:30:33.604Z,62.45
2019-05-30T03:31:33.736Z,62.96
2019-05-30T03:33:05.375Z,62.24
2019-05-30T03:33:41.448Z,62.21
2019-05-30T03:34:36.198Z,62.52
2019-05-30T03:35:41.626Z,62.01
2019-05-30T03:36:36.558Z,61.81
2019-05-30T03:37:34.717Z,63.16
2019-05-30T03:38:34.869Z,62.41
2019-05-30T03:39:35.038Z,61.91
2019-05-30T03:40:36.246Z,62.08
2019-05-30T03:41:35.371Z,62.11
2019-05-30T03:42:35.501Z,62.32
2019-05-30T03:43:35.669Z,62.01
2019-05-30T03:44:35.866Z,61.91
2019-05-30T03:45:36.015Z,61.47
2019-05-30T03:46:36.171Z,60.97
2019-05-30T03:47:36.348Z,61.68
2019-05-30T03:48:36.517Z,61.37
2019-05-30T03:49:36.672Z,60.86
2019-05-30T03:50:36.819Z,61.37
2019-05-30T03:51:37.001Z,61.07
2019-05-30T03:52:37.146Z,61.27
2019-05-30T03:53:37.331Z,61.07
2019-05-30T03:54:38.440Z,60.76
2019-05-30T03:55:37.669Z,60.63
2019-05-30T03:56:38.830Z,60.76
2019-05-30T03:57:37.957Z,59.92
2019-05-30T03:58:38.138Z,60.63
2019-05-30T03:59:38.308Z,60.40
2019-05-30T04:00:38.478Z,59.28
2019-05-30T04:01:38.631Z,60.63
2019-05-30T04:02:55.172Z,60.86
2019-05-30T04:03:41.048Z,61.17
2019-05-30T04:04:39.159Z,61.68
2019-05-30T04:05:39.478Z,61.37
2019-05-30T04:06:40.467Z,61.40
2019-05-30T04:07:39.720Z,62.11
2019-05-30T04:08:39.894Z,62.01
2019-05-30T04:09:40.070Z,61.88
2019-05-30T04:10:40.251Z,62.08
2019-05-30T04:11:40.420Z,61.88
2019-05-30T04:12:40.599Z,61.27
2019-05-30T04:13:40.810Z,61.78
2019-05-30T04:14:40.968Z,62.08
2019-05-30T04:15:41.128Z,61.57
2019-05-30T04:16:41.287Z,60.83
2019-05-30T04:17:41.429Z,60.40
2019-05-30T04:18:41.609Z,60.30
2019-05-30T04:19:41.958Z,60.10
2019-05-30T04:20:41.993Z,59.77
2019-05-30T04:21:42.155Z,59.36
2019-05-30T04:22:42.299Z,59.05
2019-05-30T04:23:42.434Z,60.60
2019-05-30T04:24:42.606Z,59.56
2019-05-30T04:25:42.815Z,59.66
2019-05-30T04:26:42.995Z,59.66
2019-05-30T04:27:43.150Z,59.36
2019-05-30T04:28:43.299Z,59.26
2019-05-30T04:29:43.420Z,59.84
2019-05-30T04:30:43.959Z,59.56
2019-05-30T04:31:43.731Z,59.63
2019-05-30T04:32:43.896Z,59.56
2019-05-30T04:33:44.049Z,60.37
2019-05-30T04:34:44.220Z,60.37
2019-05-30T04:35:44.350Z,59.63
2019-05-30T04:36:44.538Z,59.84
2019-05-30T04:37:44.716Z,60.37
2019-05-30T04:38:44.860Z,60.10
2019-05-30T04:39:45.011Z,60.37
2019-05-30T04:40:45.183Z,60.81
2019-05-30T04:41:45.449Z,61.08
2019-05-30T04:42:45.488Z,60.40
2019-05-30T04:43:45.648Z,60.98
2019-05-30T04:44:46.817Z,60.37
2019-05-30T04:45:45.948Z,60.24
2019-05-30T04:46:46.112Z,59.41
2019-05-30T04:47:46.261Z,59.20
2019-05-30T04:48:46.423Z,58.18
2019-05-30T04:49:46.587Z,58.47
2019-05-30T04:50:46.747Z,58.09
2019-05-30T04:51:46.959Z,58.49
2019-05-30T04:52:47.126Z,58.09
2019-05-30T04:53:47.298Z,59.10
2019-05-30T04:54:47.465Z,59.30
2019-05-30T04:55:47.688Z,59.61
2019-05-30T04:56:47.892Z,59.00
2019-05-30T04:57:48.066Z,59.00
2019-05-30T04:58:48.225Z,59.00
2019-05-30T04:59:48.384Z,59.20
2019-05-30T05:00:48.525Z,59.50
2019-05-30T05:01:48.701Z,58.80
2019-05-30T05:02:48.848Z,59.20
2019-05-30T05:03:49.020Z,59.30
2019-05-30T05:04:49.218Z,59.70
2019-05-30T05:05:49.384Z,60.72
2019-05-30T05:06:49.574Z,60.11
2019-05-30T05:07:49.764Z,61.33
2019-05-30T05:08:49.984Z,62.65
2019-05-30T05:09:50.160Z,62.88
2019-05-30T05:10:50.299Z,64.27
2019-05-30T05:11:51.453Z,62.48
2019-05-30T05:12:50.613Z,63.96
2019-05-30T05:13:50.768Z,64.00
2019-05-30T05:14:50.944Z,64.20
2019-05-30T05:15:51.136Z,64.84
2019-05-30T05:16:51.295Z,65.45
2019-05-30T05:17:51.495Z,66.16
2019-05-30T05:18:51.684Z,66.66
2019-05-30T05:19:51.859Z,64.84
2019-05-30T05:20:52.007Z,65.04
2019-05-30T05:21:52.184Z,64.73
2019-05-30T05:22:52.364Z,64.33
2019-05-30T05:23:52.528Z,64.53
2019-05-30T05:24:52.725Z,63.42
2019-05-30T05:26:00.950Z,63.92
2019-05-30T05:26:55.142Z,63.72
2019-05-30T05:27:53.405Z,63.82
2019-05-30T05:28:53.563Z,63.89
2019-05-30T05:29:53.738Z,63.49
2019-05-30T05:30:53.915Z,63.18
2019-05-30T05:31:54.085Z,62.27
2019-05-30T05:32:54.263Z,61.97
2019-05-30T05:33:56.963Z,62.27
2019-05-30T05:34:55.549Z,62.68
2019-05-30T05:35:54.672Z,61.74
2019-05-30T05:36:54.827Z,61.53
2019-05-30T05:37:54.992Z,61.13
2019-05-30T05:38:55.190Z,61.23
2019-05-30T05:39:55.352Z,61.23
2019-05-30T05:40:55.560Z,60.93
2019-05-30T05:41:55.729Z,62.04
2019-05-30T05:42:55.920Z,61.51
2019-05-30T05:43:56.132Z,61.60
2019-05-30T05:44:56.261Z,61.20
2019-05-30T05:45:56.438Z,60.42
2019-05-30T05:46:56.629Z,61.02
2019-05-30T05:47:57.456Z,60.59
2019-05-30T05:48:57.067Z,60.39
2019-05-30T05:49:57.156Z,60.16
2019-05-30T05:50:57.348Z,60.36
2019-05-30T05:51:57.555Z,59.45
2019-05-30T05:52:57.748Z,59.58
2019-05-30T05:53:57.957Z,60.97
2019-05-30T05:54:58.160Z,60.08
2019-05-30T05:55:58.362Z,60.59
2019-05-30T05:56:58.554Z,60.28
2019-05-30T05:57:58.735Z,60.28
2019-05-30T05:58:58.923Z,60.19
2019-05-30T05:59:59.126Z,60.26
2019-05-30T06:00:59.328Z,60.26
2019-05-30T06:01:59.493Z,58.94
2019-05-30T06:02:59.642Z,58.11
2019-05-30T06:04:12.841Z,60.57
2019-05-30T06:05:02.471Z,59.25
2019-05-30T06:06:00.971Z,60.06
2019-05-30T06:07:00.280Z,59.65
2019-05-30T06:08:00.448Z,59.45
2019-05-30T06:09:01.468Z,60.36
2019-05-30T06:10:00.792Z,59.34
2019-05-30T06:11:00.893Z,59.25
2019-05-30T06:12:01.067Z,58.00
2019-05-30T06:13:01.237Z,57.78
2019-05-30T06:14:01.409Z,58.89
2019-05-30T06:15:01.595Z,57.67
2019-05-30T06:16:01.835Z,58.41
2019-05-30T06:17:02.005Z,58.89
2019-05-30T06:18:02.169Z,58.48
2019-05-30T06:19:02.306Z,57.98
2019-05-30T06:20:02.483Z,58.25
2019-05-30T06:21:02.664Z,57.65
2019-05-30T06:22:02.808Z,58.18
2019-05-30T06:23:02.973Z,57.98
2019-05-30T06:24:03.125Z,58.58
2019-05-30T06:25:03.306Z,59.39
2019-05-30T06:26:03.467Z,59.22
2019-05-30T06:27:03.665Z,59.09
2019-05-30T06:28:03.850Z,59.12
2019-05-30T06:29:04.526Z,59.01
2019-05-30T06:30:04.160Z,59.01
2019-05-30T06:31:04.320Z,59.12
2019-05-30T06:32:04.500Z,59.01
2019-05-30T06:33:04.720Z,59.22
2019-05-30T06:34:04.887Z,60.33
2019-05-30T06:35:05.032Z,59.42
2019-05-30T06:36:05.168Z,59.16
2019-05-30T06:37:05.474Z,58.48
2019-05-30T06:38:05.487Z,58.99
2019-05-30T06:39:06.477Z,59.59
2019-05-30T06:40:05.850Z,58.78
2019-05-30T06:41:06.016Z,58.56
2019-05-30T06:42:06.217Z,58.65
2019-05-30T06:43:06.394Z,57.85
2019-05-30T06:44:06.543Z,57.52
2019-05-30T06:45:06.746Z,58.43
2019-05-30T06:46:06.922Z,58.12
2019-05-30T06:47:07.167Z,59.03
2019-05-30T06:48:07.365Z,59.31
2019-05-30T06:49:07.536Z,59.14
2019-05-30T06:50:08.469Z,58.12
2019-05-30T06:51:07.860Z,58.91
2019-05-30T06:52:08.026Z,57.72
2019-05-30T06:53:08.239Z,58.23
2019-05-30T06:54:08.407Z,58.73
2019-05-30T06:55:08.978Z,58.91
2019-05-30T06:56:08.717Z,57.49
2019-05-30T06:57:08.913Z,57.59
2019-05-30T06:58:09.076Z,57.49
2019-05-30T06:59:09.986Z,57.89
2019-05-30T07:00:09.366Z,57.49
2019-05-30T07:01:09.524Z,57.39
2019-05-30T07:02:09.734Z,57.06
2019-05-30T07:03:09.989Z,56.65
2019-05-30T07:04:11.400Z,57.36
2019-05-30T07:05:10.891Z,57.69
2019-05-30T07:06:10.787Z,57.69
2019-05-30T07:07:10.660Z,61.33
2019-05-30T07:08:10.676Z,61.94
2019-05-30T07:09:10.825Z,61.05
2019-05-30T07:10:10.992Z,62.98
2019-05-30T07:11:11.176Z,64.73
2019-05-30T07:12:12.106Z,63.61
2019-05-30T07:13:12.556Z,65.06
2019-05-30T07:14:11.671Z,65.16
2019-05-30T07:15:11.853Z,66.10
2019-05-30T07:16:12.021Z,67.52
2019-05-30T07:17:12.193Z,64.99
2019-05-30T07:18:12.382Z,66.41
2019-05-30T07:19:12.539Z,68.30
2019-05-30T07:20:12.706Z,68.19
2019-05-30T07:21:12.890Z,67.49
2019-05-30T07:22:13.060Z,69.31
2019-05-30T07:23:13.255Z,66.47
2019-05-30T07:24:13.424Z,70.09
2019-05-30T07:25:13.594Z,67.59
2019-05-30T07:26:13.740Z,67.62
2019-05-30T07:27:13.930Z,70.15
2019-05-30T07:28:14.095Z,67.72
2019-05-30T07:29:14.272Z,68.84
2019-05-30T07:30:14.457Z,68.63
2019-05-30T07:31:14.630Z,68.53
2019-05-30T07:32:14.785Z,68.80
2019-05-30T07:33:14.992Z,68.10
2019-05-30T07:34:15.158Z,68.19
2019-05-30T07:35:15.320Z,66.10
2019-05-30T07:36:15.524Z,68.19
2019-05-30T07:37:15.678Z,66.47
2019-05-30T07:38:15.878Z,68.10
2019-05-30T07:39:16.057Z,65.73
2019-05-30T07:40:19.412Z,67.63
2019-05-30T07:41:17.366Z,66.48
2019-05-30T07:42:16.520Z,63.96
2019-05-30T07:43:16.731Z,65.50
2019-05-30T07:44:16.928Z,66.82
2019-05-30T07:45:17.137Z,66.01
2019-05-30T07:46:17.325Z,68.00
2019-05-30T07:47:17.514Z,64.49
2019-05-30T07:48:17.687Z,67.12
2019-05-30T07:49:17.880Z,68.33
2019-05-30T07:50:18.092Z,70.76
2019-05-30T07:51:18.247Z,69.14
2019-05-30T07:52:18.432Z,68.63
2019-05-30T07:53:18.647Z,66.95
2019-05-30T07:54:18.837Z,68.26
2019-05-30T07:55:19.023Z,68.67
2019-05-30T07:56:19.204Z,68.47
2019-05-30T07:57:19.395Z,66.78
2019-05-30T07:58:19.579Z,69.92
2019-05-30T07:59:19.807Z,70.29
2019-05-30T08:00:20.490Z,68.26
2019-05-30T08:01:20.167Z,67.25
2019-05-30T08:02:20.333Z,68.37
2019-05-30T08:03:20.517Z,65.73
2019-05-30T08:04:20.702Z,67.02
2019-05-30T08:05:24.601Z,67.39
2019-05-30T08:06:22.009Z,63.65
2019-05-30T08:07:21.151Z,65.37
2019-05-30T08:08:21.309Z,64.94
2019-05-30T08:09:21.503Z,64.84
2019-05-30T08:10:21.676Z,63.82
2019-05-30T08:11:21.840Z,66.45
2019-05-30T08:12:22.001Z,66.25
2019-05-30T08:13:22.162Z,62.71
2019-05-30T08:14:22.353Z,65.84
2019-05-30T08:15:22.531Z,65.81
2019-05-30T08:16:22.753Z,63.70
2019-05-30T08:17:22.915Z,63.09
2019-05-30T08:18:24.131Z,64.20
2019-05-30T08:19:23.252Z,64.03
2019-05-30T08:20:23.432Z,64.84
2019-05-30T08:21:23.590Z,65.01
2019-05-30T08:22:23.778Z,64.73
2019-05-30T08:23:23.979Z,64.64
2019-05-30T08:24:24.133Z,65.81
2019-05-30T08:25:24.330Z,65.92
2019-05-30T08:26:24.514Z,65.84
2019-05-30T08:27:24.669Z,65.84
2019-05-30T08:28:24.823Z,67.60
2019-05-30T08:29:24.982Z,66.48
2019-05-30T08:30:25.159Z,66.75
2019-05-30T08:31:25.306Z,66.99
2019-05-30T08:32:25.437Z,68.27
2019-05-30T08:33:25.609Z,66.86
2019-05-30T08:34:25.740Z,67.26
2019-05-30T08:35:39.030Z,68.30
2019-05-30T08:36:28.770Z,65.67
2019-05-30T08:37:26.240Z,66.08
2019-05-30T08:38:26.407Z,66.92
2019-05-30T08:39:26.553Z,66.11
2019-05-30T08:40:27.490Z,69.14
2019-05-30T08:41:26.851Z,68.63
2019-05-30T08:42:27.973Z,69.14
2019-05-30T08:43:29.278Z,70.29
2019-05-30T08:44:27.273Z,70.56
2019-05-30T08:45:27.435Z,70.46
2019-05-30T08:46:27.582Z,71.17
2019-05-30T08:47:27.756Z,71.17
2019-05-30T08:48:27.994Z,71.17
2019-05-30T08:49:28.158Z,68.84
2019-05-30T08:50:28.310Z,68.91
2019-05-30T08:51:28.452Z,70.02
2019-05-30T08:52:28.625Z,69.85
2019-05-30T08:53:30.104Z,68.17
2019-05-30T08:54:30.181Z,66.82
2019-05-30T08:55:30.163Z,67.70
2019-05-30T08:56:30.205Z,65.85
2019-05-30T08:57:30.489Z,67.03
2019-05-30T08:58:30.426Z,65.59
2019-05-30T08:59:30.318Z,65.79
2019-05-30T09:00:31.081Z,67.47
2019-05-30T09:01:30.255Z,64.86
2019-05-30T09:02:30.417Z,63.54
2019-05-30T09:03:30.589Z,64.42
2019-05-30T09:04:30.786Z,61.40
2019-05-30T09:05:30.970Z,63.14
2019-05-30T09:06:31.138Z,64.07
2019-05-30T09:07:31.820Z,64.48
2019-05-30T09:08:32.998Z,64.78
2019-05-30T09:09:31.644Z,65.66
2019-05-30T09:10:32.508Z,64.58
2019-05-30T09:11:32.014Z,64.89
2019-05-30T09:12:32.197Z,63.87
2019-05-30T09:13:32.391Z,64.55
2019-05-30T09:14:32.620Z,64.42
2019-05-30T09:15:32.799Z,63.76
2019-05-30T09:16:33.013Z,62.42
2019-05-30T09:17:34.003Z,62.79
2019-05-30T09:18:33.398Z,62.19
2019-05-30T09:19:33.599Z,60.91
2019-05-30T09:20:33.751Z,59.80
2019-05-30T09:21:33.926Z,62.06
2019-05-30T09:22:34.112Z,59.77
2019-05-30T09:23:35.029Z,57.68
2019-05-30T09:24:34.533Z,58.06
2019-05-30T09:25:34.602Z,57.08
2019-05-30T09:26:34.754Z,56.91
2019-05-30T09:27:34.887Z,56.86
2019-05-30T09:28:35.044Z,58.97
2019-05-30T09:29:35.264Z,60.91
2019-05-30T09:30:35.415Z,60.51
2019-05-30T09:31:35.551Z,60.61
2019-05-30T09:32:35.692Z,61.41
2019-05-30T09:33:35.877Z,59.91
2019-05-30T09:34:36.518Z,61.11
2019-05-30T09:35:36.180Z,60.19
2019-05-30T09:36:36.371Z,56.23
2019-05-30T09:37:36.528Z,55.65
2019-05-30T09:38:36.738Z,55.57
2019-05-30T09:39:36.934Z,54.32
2019-05-30T09:40:37.137Z,56.26
2019-05-30T09:41:37.330Z,57.11
2019-05-30T09:42:37.510Z,57.61
2019-05-30T09:43:37.692Z,57.21
2019-05-30T09:44:40.525Z,57.21
2019-05-30T09:45:38.093Z,57.31
2019-05-30T09:46:38.255Z,57.64
2019-05-30T09:47:41.287Z,57.14
2019-05-30T09:48:40.149Z,58.04
2019-05-30T09:49:38.761Z,57.17
2019-05-30T09:50:38.947Z,57.26
2019-05-30T09:51:39.083Z,58.84
2019-05-30T09:52:39.218Z,56.91
2019-05-30T09:53:39.355Z,56.63
2019-05-30T09:54:41.173Z,57.24
2019-05-30T09:55:39.698Z,57.01
2019-05-30T09:56:39.827Z,56.28
2019-05-30T09:57:41.296Z,56.52
2019-05-30T09:58:42.220Z,54.10
2019-05-30T09:59:41.789Z,53.80
2019-05-30T10:00:42.907Z,52.57
2019-05-30T10:01:42.631Z,52.74
2019-05-30T10:02:42.962Z,51.82
2019-05-30T10:03:43.065Z,52.37
2019-05-30T10:04:42.047Z,52.74
2019-05-30T10:05:43.308Z,52.55
2019-05-30T10:06:43.573Z,53.22
2019-05-30T10:07:43.518Z,51.92
2019-05-30T10:08:42.476Z,51.20
2019-05-30T10:09:42.747Z,50.49
2019-05-30T10:10:43.758Z,51.92
2019-05-30T10:11:42.807Z,53.42
2019-05-30T10:12:43.897Z,52.52
2019-05-30T10:13:45.746Z,52.02
2019-05-30T10:14:45.629Z,51.12
2019-05-30T10:15:44.059Z,50.77
2019-05-30T10:16:47.324Z,50.57
2019-05-30T10:17:48.307Z,50.27
2019-05-30T10:18:47.236Z,50.62
2019-05-30T10:19:45.846Z,51.25
2019-05-30T10:20:45.799Z,52.49
2019-05-30T10:21:47.119Z,53.59
2019-05-30T10:22:48.285Z,53.00
2019-05-30T10:23:47.183Z,52.39
2019-05-30T10:24:46.299Z,54.32
2019-05-30T10:25:46.644Z,52.55
2019-05-30T10:26:46.092Z,54.12
2019-05-30T10:27:47.899Z,54.22
2019-05-30T10:28:46.413Z,52.57
2019-05-30T10:29:47.523Z,52.57
2019-05-30T10:30:51.777Z,51.04
2019-05-30T10:31:48.327Z,51.52
2019-05-30T10:32:48.168Z,53.39
2019-05-30T10:33:49.210Z,51.29
2019-05-30T10:34:48.047Z,51.82
2019-05-30T10:35:49.146Z,51.04
2019-05-30T10:36:48.757Z,51.02
2019-05-30T10:37:49.093Z,51.50
2019-05-30T10:38:50.221Z,50.89
2019-05-30T10:39:49.187Z,52.00
2019-05-30T10:40:50.338Z,50.24
2019-05-30T10:41:49.022Z,50.87
2019-05-30T10:42:49.610Z,50.89
2019-05-30T10:43:49.064Z,51.74
2019-05-30T10:44:49.918Z,50.84
2019-05-30T10:45:49.640Z,52.49
2019-05-30T10:46:51.009Z,50.02
2019-05-30T10:47:51.236Z,50.89
2019-05-30T10:48:50.941Z,49.99
2019-05-30T10:49:49.920Z,50.59
2019-05-30T10:50:50.726Z,49.87
2019-05-30T10:51:49.867Z,49.74
2019-05-30T10:52:50.036Z,49.60
2019-05-30T10:53:50.857Z,48.78
2019-05-30T10:54:51.528Z,48.40
2019-05-30T10:55:50.560Z,48.80
2019-05-30T10:56:51.486Z,48.08
2019-05-30T10:57:51.741Z,48.33
2019-05-30T10:58:51.063Z,48.50
2019-05-30T10:59:52.560Z,48.67
2019-05-30T11:00:53.339Z,50.62
2019-05-30T11:01:53.054Z,51.52
2019-05-30T11:02:52.934Z,51.64
2019-05-30T11:03:52.626Z,52.22
2019-05-30T11:04:53.131Z,52.89
2019-05-30T11:05:52.867Z,50.20
2019-05-30T11:07:09.876Z,50.42
2019-05-30T11:08:02.042Z,51.02
2019-05-30T11:08:54.765Z,52.49
2019-05-30T11:09:53.175Z,50.92
2019-05-30T11:10:53.302Z,51.52
2019-05-30T11:11:54.903Z,51.64
2019-05-30T11:13:03.091Z,51.87
2019-05-30T11:13:55.920Z,53.17
2019-05-30T11:14:55.280Z,52.80
2019-05-30T11:15:55.459Z,53.52
2019-05-30T11:16:55.496Z,53.52
2019-05-30T11:17:54.842Z,53.72
2019-05-30T11:18:56.095Z,54.43
2019-05-30T11:19:56.099Z,54.22
2019-05-30T11:20:56.242Z,53.30
2019-05-30T11:21:56.286Z,54.80
2019-05-30T11:22:56.518Z,54.00
2019-05-30T11:23:56.815Z,54.87
2019-05-30T11:24:56.856Z,53.37
2019-05-30T11:25:56.863Z,52.67
2019-05-30T11:26:57.125Z,54.80
2019-05-30T11:27:56.856Z,54.00
2019-05-30T11:28:56.795Z,54.62
2019-05-30T11:29:58.915Z,55.22
2019-05-30T11:30:56.937Z,53.92
2019-05-30T11:31:59.046Z,55.25
2019-05-30T11:32:57.332Z,55.65
2019-05-30T11:33:59.181Z,56.88
2019-05-30T11:34:57.609Z,56.18
2019-05-30T11:35:59.249Z,56.81
2019-05-30T11:36:59.132Z,57.21
2019-05-30T11:37:59.254Z,58.01
2019-05-30T11:38:59.431Z,56.81
2019-05-30T11:39:59.467Z,57.44
2019-05-30T11:40:59.623Z,57.64
2019-05-30T11:41:59.522Z,57.74
2019-05-30T11:42:59.944Z,57.81
2019-05-30T11:44:03.960Z,57.48
2019-05-30T11:44:59.959Z,57.39
2019-05-30T11:46:00.529Z,55.75
2019-05-30T11:46:59.846Z,55.47
2019-05-30T11:48:00.142Z,57.28
2019-05-30T11:49:01.548Z,56.78
2019-05-30T11:50:01.054Z,57.68
2019-05-30T11:51:00.370Z,56.48
2019-05-30T11:52:00.433Z,56.85
2019-05-30T11:53:00.589Z,56.85
2019-05-30T11:54:01.158Z,56.13
2019-05-30T11:55:01.957Z,56.26
2019-05-30T11:56:01.123Z,56.78
2019-05-30T11:57:01.283Z,57.18
2019-05-30T11:58:01.495Z,56.96
2019-05-30T11:59:01.674Z,56.35
2019-05-30T12:00:01.845Z,56.26
2019-05-30T12:01:02.035Z,56.65
2019-05-30T12:02:03.075Z,57.18
2019-05-30T12:03:02.347Z,56.98
2019-05-30T12:04:02.500Z,57.66
2019-05-30T12:05:02.660Z,56.85
2019-05-30T12:06:03.057Z,57.48
2019-05-30T12:07:02.952Z,57.76
2019-05-30T12:08:03.132Z,56.23
2019-05-30T12:09:03.268Z,56.33
2019-05-30T12:10:03.402Z,56.26
2019-05-30T12:11:03.564Z,56.05
2019-05-30T12:12:03.696Z,57.35
2019-05-30T12:13:03.862Z,56.28
2019-05-30T12:14:04.002Z,56.51
2019-05-30T12:15:04.150Z,57.34
2019-05-30T12:16:04.304Z,57.31
2019-05-30T12:17:04.470Z,56.81
2019-05-30T12:18:04.619Z,57.91
2019-05-30T12:19:04.739Z,56.96
2019-05-30T12:20:04.884Z,56.56
2019-05-30T12:21:05.020Z,54.93
2019-05-30T12:22:05.176Z,54.52
2019-05-30T12:23:06.078Z,55.82
2019-05-30T12:24:05.450Z,56.20
2019-05-30T12:25:05.609Z,54.72
2019-05-30T12:26:05.743Z,55.13
2019-05-30T12:27:05.938Z,55.75
2019-05-30T12:28:06.104Z,56.48
2019-05-30T12:29:06.270Z,56.48
2019-05-30T12:30:06.407Z,55.88
2019-05-30T12:31:06.824Z,57.39
2019-05-30T12:32:07.739Z,55.82
2019-05-30T12:33:06.854Z,56.60
2019-05-30T12:34:07.012Z,56.30
2019-05-30T12:35:07.154Z,54.90
2019-05-30T12:36:08.304Z,55.63
2019-05-30T12:37:07.552Z,56.56
2019-05-30T12:38:07.684Z,56.23
2019-05-30T12:39:07.854Z,56.15
2019-05-30T12:40:08.581Z,57.11
2019-05-30T12:41:08.234Z,57.71
2019-05-30T12:42:08.447Z,56.78
2019-05-30T12:43:08.624Z,56.56
2019-05-30T12:44:08.772Z,56.51
2019-05-30T12:45:08.944Z,56.98
2019-05-30T12:46:10.071Z,57.71
2019-05-30T12:47:09.332Z,57.84
2019-05-30T12:48:09.526Z,57.44
2019-05-30T12:49:09.651Z,58.97
2019-05-30T12:50:09.813Z,58.57
2019-05-30T12:51:09.956Z,58.14
2019-05-30T12:52:10.098Z,57.46
2019-05-30T12:53:11.273Z,58.07
2019-05-30T12:54:10.384Z,59.85